sensor_id;sensor_type;location;lat;lon;timestamp;P1;durP1;ratioP1;P2;durP2;ratioP2
63342;SDS011;49465;57.664;39.686;2022-07-23T00:01:53;6.70;;;5.07;;
63342;SDS011;49465;57.664;39.686;2022-07-23T00:04:23;7.38;;;5.10;;
63342;SDS011;49465;57.664;39.686;2022-07-23T00:06:49;7.93;;;5.13;;
63342;SDS011;49465;57.664;39.686;2022-07-23T00:09:18;8.05;;;5.25;;
63342;SDS011;49465;57.664;39.686;2022-07-23T00:11:48;7.18;;;4.95;;
63342;SDS011;49465;57.664;39.686;2022-07-23T00:14:14;7.00;;;5.28;;
63342;SDS011;49465;57.664;39.686;2022-07-23T00:16:50;5.82;;;5.03;;
63342;SDS011;49465;57.664;39.686;2022-07-23T00:19:16;5.60;;;4.70;;
63342;SDS011;49465;57.664;39.686;2022-07-23T00:21:42;7.30;;;5.00;;
63342;SDS011;49465;57.664;39.686;2022-07-23T00:24:14;8.95;;;5.18;;
63342;SDS011;49465;57.664;39.686;2022-07-23T00:26:41;5.65;;;5.05;;
63342;SDS011;49465;57.664;39.686;2022-07-23T00:29:07;7.75;;;5.15;;
63342;SDS011;49465;57.664;39.686;2022-07-23T00:31:38;6.63;;;4.90;;
63342;SDS011;49465;57.664;39.686;2022-07-23T00:34:04;7.13;;;4.85;;
63342;SDS011;49465;57.664;39.686;2022-07-23T00:36:31;6.63;;;5.20;;
63342;SDS011;49465;57.664;39.686;2022-07-23T00:38:57;6.28;;;5.65;;
63342;SDS011;49465;57.664;39.686;2022-07-23T00:41:27;8.45;;;5.97;;
63342;SDS011;49465;57.664;39.686;2022-07-23T00:43:54;9.00;;;5.50;;
63342;SDS011;49465;57.664;39.686;2022-07-23T00:46:23;7.97;;;5.63;;
63342;SDS011;49465;57.664;39.686;2022-07-23T00:48:53;8.48;;;5.45;;
63342;SDS011;49465;57.664;39.686;2022-07-23T00:51:23;7.95;;;5.55;;
63342;SDS011;49465;57.664;39.686;2022-07-23T00:53:55;9.63;;;6.25;;
63342;SDS011;49465;57.664;39.686;2022-07-23T00:56:21;7.80;;;5.55;;
63342;SDS011;49465;57.664;39.686;2022-07-23T00:58:48;7.72;;;5.80;;
63342;SDS011;49465;57.664;39.686;2022-07-23T01:01:18;7.63;;;6.05;;
63342;SDS011;49465;57.664;39.686;2022-07-23T01:03:49;7.18;;;5.95;;
63342;SDS011;49465;57.664;39.686;2022-07-23T01:06:18;8.73;;;6.18;;
63342;SDS011;49465;57.664;39.686;2022-07-23T01:08:49;8.73;;;5.90;;
63342;SDS011;49465;57.664;39.686;2022-07-23T01:11:17;6.63;;;5.70;;
63342;SDS011;49465;57.664;39.686;2022-07-23T01:13:47;8.63;;;5.40;;
63342;SDS011;49465;57.664;39.686;2022-07-23T01:16:13;6.65;;;5.05;;
63342;SDS011;49465;57.664;39.686;2022-07-23T01:18:40;5.70;;;5.15;;
63342;SDS011;49465;57.664;39.686;2022-07-23T01:21:14;8.52;;;5.43;;
63342;SDS011;49465;57.664;39.686;2022-07-23T01:23:47;6.25;;;5.25;;
63342;SDS011;49465;57.664;39.686;2022-07-23T01:26:17;8.55;;;5.88;;
63342;SDS011;49465;57.664;39.686;2022-07-23T01:28:47;7.65;;;5.18;;
63342;SDS011;49465;57.664;39.686;2022-07-23T01:31:17;6.97;;;5.57;;
63342;SDS011;49465;57.664;39.686;2022-07-23T01:33:47;8.00;;;5.07;;
63342;SDS011;49465;57.664;39.686;2022-07-23T01:36:14;11.05;;;5.32;;
63342;SDS011;49465;57.664;39.686;2022-07-23T01:38:43;10.80;;;5.82;;
63342;SDS011;49465;57.664;39.686;2022-07-23T01:41:10;8.98;;;5.93;;
63342;SDS011;49465;57.664;39.686;2022-07-23T01:43:36;7.68;;;5.63;;
63342;SDS011;49465;57.664;39.686;2022-07-23T01:46:09;8.68;;;5.38;;
63342;SDS011;49465;57.664;39.686;2022-07-23T01:48:36;7.93;;;5.80;;
63342;SDS011;49465;57.664;39.686;2022-07-23T01:51:19;7.03;;;5.55;;
63342;SDS011;49465;57.664;39.686;2022-07-23T01:53:45;6.95;;;5.78;;
63342;SDS011;49465;57.664;39.686;2022-07-23T01:56:17;7.05;;;5.43;;
63342;SDS011;49465;57.664;39.686;2022-07-23T01:58:57;8.43;;;5.38;;
63342;SDS011;49465;57.664;39.686;2022-07-23T02:01:40;8.80;;;5.32;;
63342;SDS011;49465;57.664;39.686;2022-07-23T02:04:10;7.15;;;5.30;;
63342;SDS011;49465;57.664;39.686;2022-07-23T02:06:41;7.22;;;5.65;;
63342;SDS011;49465;57.664;39.686;2022-07-23T02:09:07;7.13;;;5.57;;
63342;SDS011;49465;57.664;39.686;2022-07-23T02:11:39;7.60;;;5.68;;
63342;SDS011;49465;57.664;39.686;2022-07-23T02:14:06;7.43;;;5.50;;
63342;SDS011;49465;57.664;39.686;2022-07-23T02:16:38;7.45;;;5.65;;
63342;SDS011;49465;57.664;39.686;2022-07-23T02:19:05;8.45;;;5.70;;
63342;SDS011;49465;57.664;39.686;2022-07-23T02:21:31;11.45;;;5.82;;
63342;SDS011;49465;57.664;39.686;2022-07-23T02:23:58;6.90;;;5.20;;
63342;SDS011;49465;57.664;39.686;2022-07-23T02:26:24;5.43;;;4.93;;
63342;SDS011;49465;57.664;39.686;2022-07-23T02:28:51;6.47;;;5.35;;
63342;SDS011;49465;57.664;39.686;2022-07-23T02:31:18;6.78;;;5.13;;
63342;SDS011;49465;57.664;39.686;2022-07-23T02:33:45;6.45;;;4.75;;
63342;SDS011;49465;57.664;39.686;2022-07-23T02:36:14;7.90;;;5.25;;
63342;SDS011;49465;57.664;39.686;2022-07-23T02:38:53;7.15;;;5.50;;
63342;SDS011;49465;57.664;39.686;2022-07-23T02:41:23;9.05;;;5.30;;
63342;SDS011;49465;57.664;39.686;2022-07-23T02:43:54;6.10;;;5.10;;
63342;SDS011;49465;57.664;39.686;2022-07-23T02:46:20;7.90;;;5.32;;
63342;SDS011;49465;57.664;39.686;2022-07-23T02:48:52;7.50;;;5.32;;
63342;SDS011;49465;57.664;39.686;2022-07-23T02:51:18;8.05;;;5.30;;
63342;SDS011;49465;57.664;39.686;2022-07-23T02:53:44;10.23;;;5.65;;
63342;SDS011;49465;57.664;39.686;2022-07-23T02:56:11;7.72;;;5.70;;
63342;SDS011;49465;57.664;39.686;2022-07-23T02:58:42;7.97;;;5.40;;
63342;SDS011;49465;57.664;39.686;2022-07-23T03:01:13;11.00;;;8.50;;
63342;SDS011;49465;57.664;39.686;2022-07-23T03:03:44;9.52;;;8.27;;
63342;SDS011;49465;57.664;39.686;2022-07-23T03:06:11;15.05;;;13.48;;
63342;SDS011;49465;57.664;39.686;2022-07-23T03:08:44;20.33;;;18.27;;
63342;SDS011;49465;57.664;39.686;2022-07-23T03:11:13;17.50;;;15.70;;
63342;SDS011;49465;57.664;39.686;2022-07-23T03:13:40;13.82;;;11.93;;
63342;SDS011;49465;57.664;39.686;2022-07-23T03:16:14;13.27;;;11.98;;
63342;SDS011;49465;57.664;39.686;2022-07-23T03:18:43;11.25;;;9.75;;
63342;SDS011;49465;57.664;39.686;2022-07-23T03:21:14;8.43;;;7.40;;
63342;SDS011;49465;57.664;39.686;2022-07-23T03:23:45;13.75;;;11.05;;
63342;SDS011;49465;57.664;39.686;2022-07-23T03:26:12;7.50;;;6.70;;
63342;SDS011;49465;57.664;39.686;2022-07-23T03:28:38;11.93;;;10.50;;
63342;SDS011;49465;57.664;39.686;2022-07-23T03:31:10;13.38;;;11.63;;
63342;SDS011;49465;57.664;39.686;2022-07-23T03:33:36;10.70;;;9.43;;
63342;SDS011;49465;57.664;39.686;2022-07-23T03:36:03;10.30;;;8.82;;
63342;SDS011;49465;57.664;39.686;2022-07-23T03:38:34;9.23;;;8.27;;
63342;SDS011;49465;57.664;39.686;2022-07-23T03:41:01;8.23;;;7.40;;
63342;SDS011;49465;57.664;39.686;2022-07-23T03:43:31;9.75;;;7.18;;
63342;SDS011;49465;57.664;39.686;2022-07-23T03:46:02;7.60;;;6.82;;
63342;SDS011;49465;57.664;39.686;2022-07-23T03:48:29;8.57;;;7.70;;
63342;SDS011;49465;57.664;39.686;2022-07-23T03:51:02;9.48;;;7.60;;
63342;SDS011;49465;57.664;39.686;2022-07-23T03:53:36;8.40;;;7.38;;
63342;SDS011;49465;57.664;39.686;2022-07-23T03:56:04;8.15;;;7.28;;
63342;SDS011;49465;57.664;39.686;2022-07-23T03:58:49;8.77;;;7.40;;
63342;SDS011;49465;57.664;39.686;2022-07-23T04:01:41;9.52;;;7.55;;
63342;SDS011;49465;57.664;39.686;2022-07-23T04:04:07;8.95;;;7.60;;
63342;SDS011;49465;57.664;39.686;2022-07-23T04:06:38;8.00;;;6.93;;
63342;SDS011;49465;57.664;39.686;2022-07-23T04:09:04;8.40;;;6.80;;
63342;SDS011;49465;57.664;39.686;2022-07-23T04:11:36;7.90;;;6.82;;
63342;SDS011;49465;57.664;39.686;2022-07-23T04:14:08;7.82;;;7.00;;
63342;SDS011;49465;57.664;39.686;2022-07-23T04:16:34;9.18;;;6.68;;
63342;SDS011;49465;57.664;39.686;2022-07-23T04:19:01;7.88;;;6.60;;
63342;SDS011;49465;57.664;39.686;2022-07-23T04:21:29;8.80;;;6.88;;
63342;SDS011;49465;57.664;39.686;2022-07-23T04:23:57;9.75;;;6.78;;
63342;SDS011;49465;57.664;39.686;2022-07-23T04:26:26;7.20;;;6.50;;
63342;SDS011;49465;57.664;39.686;2022-07-23T04:29:04;7.30;;;6.60;;
63342;SDS011;49465;57.664;39.686;2022-07-23T04:31:33;9.68;;;6.57;;
63342;SDS011;49465;57.664;39.686;2022-07-23T04:34:00;7.82;;;6.88;;
63342;SDS011;49465;57.664;39.686;2022-07-23T04:36:26;7.57;;;6.40;;
63342;SDS011;49465;57.664;39.686;2022-07-23T04:38:54;7.15;;;6.25;;
63342;SDS011;49465;57.664;39.686;2022-07-23T04:41:20;7.80;;;6.75;;
63342;SDS011;49465;57.664;39.686;2022-07-23T04:43:49;9.05;;;6.63;;
63342;SDS011;49465;57.664;39.686;2022-07-23T04:46:19;9.00;;;6.55;;
63342;SDS011;49465;57.664;39.686;2022-07-23T04:48:45;7.85;;;6.53;;
63342;SDS011;49465;57.664;39.686;2022-07-23T04:51:14;7.38;;;6.10;;
63342;SDS011;49465;57.664;39.686;2022-07-23T04:53:47;7.83;;;6.80;;
63342;SDS011;49465;57.664;39.686;2022-07-23T04:56:17;8.75;;;6.63;;
63342;SDS011;49465;57.664;39.686;2022-07-23T04:58:43;10.65;;;7.03;;
63342;SDS011;49465;57.664;39.686;2022-07-23T05:01:10;7.25;;;6.55;;
63342;SDS011;49465;57.664;39.686;2022-07-23T05:03:40;7.47;;;6.68;;
63342;SDS011;49465;57.664;39.686;2022-07-23T05:06:07;11.10;;;6.40;;
63342;SDS011;49465;57.664;39.686;2022-07-23T05:08:33;7.32;;;6.40;;
63342;SDS011;49465;57.664;39.686;2022-07-23T05:11:02;6.95;;;6.22;;
63342;SDS011;49465;57.664;39.686;2022-07-23T05:13:33;7.95;;;6.53;;
63342;SDS011;49465;57.664;39.686;2022-07-23T05:16:04;8.27;;;6.55;;
63342;SDS011;49465;57.664;39.686;2022-07-23T05:18:52;7.53;;;6.55;;
63342;SDS011;49465;57.664;39.686;2022-07-23T05:21:25;6.88;;;6.13;;
63342;SDS011;49465;57.664;39.686;2022-07-23T05:23:57;8.63;;;6.45;;
63342;SDS011;49465;57.664;39.686;2022-07-23T05:26:26;6.60;;;5.90;;
63342;SDS011;49465;57.664;39.686;2022-07-23T05:29:11;6.93;;;6.22;;
63342;SDS011;49465;57.664;39.686;2022-07-23T05:31:37;13.75;;;8.93;;
63342;SDS011;49465;57.664;39.686;2022-07-23T05:34:17;8.05;;;6.68;;
63342;SDS011;49465;57.664;39.686;2022-07-23T05:36:49;8.10;;;7.00;;
63342;SDS011;49465;57.664;39.686;2022-07-23T05:39:20;7.25;;;6.53;;
63342;SDS011;49465;57.664;39.686;2022-07-23T05:41:52;7.78;;;6.20;;
63342;SDS011;49465;57.664;39.686;2022-07-23T05:44:29;7.40;;;6.25;;
63342;SDS011;49465;57.664;39.686;2022-07-23T05:46:59;7.43;;;6.03;;
63342;SDS011;49465;57.664;39.686;2022-07-23T05:49:26;6.35;;;5.80;;
63342;SDS011;49465;57.664;39.686;2022-07-23T05:51:52;6.65;;;6.05;;
63342;SDS011;49465;57.664;39.686;2022-07-23T05:54:30;8.10;;;6.03;;
63342;SDS011;49465;57.664;39.686;2022-07-23T05:57:02;6.88;;;6.18;;
63342;SDS011;49465;57.664;39.686;2022-07-23T05:59:31;8.68;;;6.18;;
63342;SDS011;49465;57.664;39.686;2022-07-23T06:01:59;6.50;;;5.70;;
63342;SDS011;49465;57.664;39.686;2022-07-23T06:04:25;8.93;;;6.30;;
63342;SDS011;49465;57.664;39.686;2022-07-23T06:06:56;7.05;;;5.72;;
63342;SDS011;49465;57.664;39.686;2022-07-23T06:09:27;6.47;;;5.82;;
63342;SDS011;49465;57.664;39.686;2022-07-23T06:11:59;7.80;;;5.88;;
63342;SDS011;49465;57.664;39.686;2022-07-23T06:14:33;8.00;;;5.88;;
63342;SDS011;49465;57.664;39.686;2022-07-23T06:17:07;6.68;;;5.95;;
63342;SDS011;49465;57.664;39.686;2022-07-23T06:19:33;6.28;;;5.70;;
63342;SDS011;49465;57.664;39.686;2022-07-23T06:22:00;5.65;;;5.05;;
63342;SDS011;49465;57.664;39.686;2022-07-23T06:24:29;6.93;;;5.15;;
63342;SDS011;49465;57.664;39.686;2022-07-23T06:26:55;6.07;;;5.00;;
63342;SDS011;49465;57.664;39.686;2022-07-23T06:29:26;5.78;;;5.25;;
63342;SDS011;49465;57.664;39.686;2022-07-23T06:31:55;7.78;;;5.25;;
63342;SDS011;49465;57.664;39.686;2022-07-23T06:34:25;6.00;;;5.40;;
63342;SDS011;49465;57.664;39.686;2022-07-23T06:36:55;7.10;;;5.40;;
63342;SDS011;49465;57.664;39.686;2022-07-23T06:39:22;6.07;;;5.38;;
63342;SDS011;49465;57.664;39.686;2022-07-23T06:41:48;7.00;;;5.25;;
63342;SDS011;49465;57.664;39.686;2022-07-23T06:44:15;5.68;;;5.13;;
63342;SDS011;49465;57.664;39.686;2022-07-23T06:46:44;6.00;;;5.40;;
63342;SDS011;49465;57.664;39.686;2022-07-23T06:49:10;6.57;;;5.43;;
63342;SDS011;49465;57.664;39.686;2022-07-23T06:51:37;6.53;;;5.00;;
63342;SDS011;49465;57.664;39.686;2022-07-23T06:54:03;5.90;;;5.30;;
63342;SDS011;49465;57.664;39.686;2022-07-23T06:56:30;5.95;;;5.05;;
63342;SDS011;49465;57.664;39.686;2022-07-23T06:58:56;6.13;;;5.20;;
63342;SDS011;49465;57.664;39.686;2022-07-23T07:01:29;5.85;;;4.97;;
63342;SDS011;49465;57.664;39.686;2022-07-23T07:03:55;5.28;;;4.78;;
63342;SDS011;49465;57.664;39.686;2022-07-23T07:06:22;6.75;;;5.20;;
63342;SDS011;49465;57.664;39.686;2022-07-23T07:08:48;5.80;;;5.30;;
63342;SDS011;49465;57.664;39.686;2022-07-23T07:11:14;5.35;;;4.85;;
63342;SDS011;49465;57.664;39.686;2022-07-23T07:13:41;5.45;;;4.50;;
63342;SDS011;49465;57.664;39.686;2022-07-23T07:16:07;5.50;;;4.45;;
63342;SDS011;49465;57.664;39.686;2022-07-23T07:18:34;4.93;;;4.43;;
63342;SDS011;49465;57.664;39.686;2022-07-23T07:21:00;4.60;;;4.20;;
63342;SDS011;49465;57.664;39.686;2022-07-23T07:23:27;4.95;;;4.25;;
63342;SDS011;49465;57.664;39.686;2022-07-23T07:26:00;4.75;;;4.25;;
63342;SDS011;49465;57.664;39.686;2022-07-23T07:28:26;4.70;;;4.28;;
63342;SDS011;49465;57.664;39.686;2022-07-23T07:30:55;5.45;;;4.50;;
63342;SDS011;49465;57.664;39.686;2022-07-23T07:33:30;6.70;;;4.63;;
63342;SDS011;49465;57.664;39.686;2022-07-23T07:35:57;6.07;;;4.78;;
63342;SDS011;49465;57.664;39.686;2022-07-23T07:38:26;5.30;;;4.80;;
63342;SDS011;49465;57.664;39.686;2022-07-23T07:40:52;6.15;;;4.80;;
63342;SDS011;49465;57.664;39.686;2022-07-23T07:43:19;7.25;;;5.40;;
63342;SDS011;49465;57.664;39.686;2022-07-23T07:45:45;7.45;;;6.13;;
63342;SDS011;49465;57.664;39.686;2022-07-23T07:48:12;8.02;;;6.13;;
63342;SDS011;49465;57.664;39.686;2022-07-23T07:50:38;9.13;;;6.50;;
63342;SDS011;49465;57.664;39.686;2022-07-23T07:53:04;8.55;;;6.63;;
63342;SDS011;49465;57.664;39.686;2022-07-23T07:55:31;8.55;;;6.28;;
63342;SDS011;49465;57.664;39.686;2022-07-23T07:57:57;8.48;;;6.35;;
63342;SDS011;49465;57.664;39.686;2022-07-23T08:00:24;9.07;;;6.50;;
63342;SDS011;49465;57.664;39.686;2022-07-23T08:02:51;9.52;;;6.25;;
63342;SDS011;49465;57.664;39.686;2022-07-23T08:05:23;9.10;;;6.40;;
63342;SDS011;49465;57.664;39.686;2022-07-23T08:07:51;8.82;;;6.97;;
63342;SDS011;49465;57.664;39.686;2022-07-23T08:10:17;8.20;;;6.25;;
63342;SDS011;49465;57.664;39.686;2022-07-23T08:12:46;6.88;;;5.93;;
63342;SDS011;49465;57.664;39.686;2022-07-23T08:15:14;7.75;;;5.43;;
63342;SDS011;49465;57.664;39.686;2022-07-23T08:17:43;10.07;;;6.47;;
63342;SDS011;49465;57.664;39.686;2022-07-23T08:20:11;10.35;;;7.78;;
63342;SDS011;49465;57.664;39.686;2022-07-23T08:25:11;10.05;;;6.50;;
63342;SDS011;49465;57.664;39.686;2022-07-23T08:27:44;7.30;;;6.38;;
63342;SDS011;49465;57.664;39.686;2022-07-23T08:30:10;8.93;;;7.28;;
63342;SDS011;49465;57.664;39.686;2022-07-23T08:35:23;6.72;;;5.93;;
63342;SDS011;49465;57.664;39.686;2022-07-23T08:37:52;7.65;;;6.50;;
63342;SDS011;49465;57.664;39.686;2022-07-23T08:40:19;8.63;;;6.93;;
63342;SDS011;49465;57.664;39.686;2022-07-23T08:42:47;7.28;;;6.55;;
63342;SDS011;49465;57.664;39.686;2022-07-23T08:45:15;8.95;;;6.68;;
63342;SDS011;49465;57.664;39.686;2022-07-23T08:47:45;6.18;;;5.50;;
63342;SDS011;49465;57.664;39.686;2022-07-23T08:50:24;6.00;;;5.38;;
63342;SDS011;49465;57.664;39.686;2022-07-23T08:52:52;7.38;;;5.93;;
63342;SDS011;49465;57.664;39.686;2022-07-23T08:55:22;7.63;;;6.15;;
63342;SDS011;49465;57.664;39.686;2022-07-23T08:57:49;7.03;;;5.85;;
63342;SDS011;49465;57.664;39.686;2022-07-23T09:00:17;6.38;;;5.53;;
63342;SDS011;49465;57.664;39.686;2022-07-23T09:02:48;7.35;;;5.70;;
63342;SDS011;49465;57.664;39.686;2022-07-23T09:05:18;6.68;;;5.97;;
63342;SDS011;49465;57.664;39.686;2022-07-23T09:10:45;6.50;;;5.65;;
63342;SDS011;49465;57.664;39.686;2022-07-23T09:13:34;8.43;;;5.60;;
63342;SDS011;49465;57.664;39.686;2022-07-23T09:16:18;7.57;;;5.78;;
63342;SDS011;49465;57.664;39.686;2022-07-23T09:23:59;6.00;;;5.38;;
63342;SDS011;49465;57.664;39.686;2022-07-23T09:29:03;7.30;;;6.10;;
63342;SDS011;49465;57.664;39.686;2022-07-23T09:34:29;6.65;;;5.80;;
63342;SDS011;49465;57.664;39.686;2022-07-23T09:37:19;6.53;;;5.93;;
63342;SDS011;49465;57.664;39.686;2022-07-23T09:39:46;6.50;;;5.75;;
63342;SDS011;49465;57.664;39.686;2022-07-23T09:42:14;7.50;;;5.85;;
63342;SDS011;49465;57.664;39.686;2022-07-23T09:44:43;6.30;;;5.70;;
63342;SDS011;49465;57.664;39.686;2022-07-23T09:47:11;6.57;;;5.75;;
63342;SDS011;49465;57.664;39.686;2022-07-23T09:49:38;8.52;;;5.60;;
63342;SDS011;49465;57.664;39.686;2022-07-23T09:52:05;6.97;;;5.50;;
63342;SDS011;49465;57.664;39.686;2022-07-23T09:54:33;6.22;;;5.63;;
63342;SDS011;49465;57.664;39.686;2022-07-23T09:57:08;6.07;;;5.47;;
63342;SDS011;49465;57.664;39.686;2022-07-23T09:59:40;6.57;;;5.30;;
63342;SDS011;49465;57.664;39.686;2022-07-23T10:02:07;5.70;;;5.20;;
63342;SDS011;49465;57.664;39.686;2022-07-23T10:04:38;5.68;;;5.18;;
63342;SDS011;49465;57.664;39.686;2022-07-23T10:07:06;6.72;;;5.10;;
63342;SDS011;49465;57.664;39.686;2022-07-23T10:09:37;8.00;;;5.30;;
63342;SDS011;49465;57.664;39.686;2022-07-23T10:12:09;5.97;;;5.47;;
63342;SDS011;49465;57.664;39.686;2022-07-23T10:14:38;6.32;;;5.70;;
63342;SDS011;49465;57.664;39.686;2022-07-23T10:17:08;6.15;;;5.55;;
63342;SDS011;49465;57.664;39.686;2022-07-23T10:19:34;6.93;;;5.53;;
63342;SDS011;49465;57.664;39.686;2022-07-23T10:22:03;6.03;;;5.43;;
63342;SDS011;49465;57.664;39.686;2022-07-23T10:24:52;7.97;;;6.38;;
63342;SDS011;49465;57.664;39.686;2022-07-23T10:30:15;7.63;;;6.82;;
63342;SDS011;49465;57.664;39.686;2022-07-23T10:38:54;6.78;;;6.18;;
63342;SDS011;49465;57.664;39.686;2022-07-23T10:41:37;7.20;;;6.40;;
63342;SDS011;49465;57.664;39.686;2022-07-23T10:44:15;10.18;;;6.35;;
63342;SDS011;49465;57.664;39.686;2022-07-23T10:46:54;7.53;;;6.57;;
63342;SDS011;49465;57.664;39.686;2022-07-23T10:49:33;6.70;;;6.05;;
63342;SDS011;49465;57.664;39.686;2022-07-23T10:54:40;7.28;;;6.55;;
63342;SDS011;49465;57.664;39.686;2022-07-23T10:57:14;7.67;;;6.90;;
63342;SDS011;49465;57.664;39.686;2022-07-23T11:02:40;8.15;;;6.47;;
63342;SDS011;49465;57.664;39.686;2022-07-23T11:05:14;6.68;;;5.57;;
63342;SDS011;49465;57.664;39.686;2022-07-23T11:10:39;7.95;;;6.20;;
63342;SDS011;49465;57.664;39.686;2022-07-23T11:24:09;7.88;;;6.22;;
63342;SDS011;49465;57.664;39.686;2022-07-23T11:26:54;10.32;;;6.47;;
63342;SDS011;49465;57.664;39.686;2022-07-23T11:31:53;9.30;;;6.57;;
63342;SDS011;49465;57.664;39.686;2022-07-23T11:37:33;7.07;;;6.28;;
63342;SDS011;49465;57.664;39.686;2022-07-23T11:40:14;8.82;;;6.22;;
63342;SDS011;49465;57.664;39.686;2022-07-23T11:42:52;9.07;;;6.30;;
63342;SDS011;49465;57.664;39.686;2022-07-23T11:45:34;7.57;;;6.50;;
63342;SDS011;49465;57.664;39.686;2022-07-23T11:48:08;7.45;;;6.65;;
63342;SDS011;49465;57.664;39.686;2022-07-23T11:50:44;7.13;;;6.43;;
63342;SDS011;49465;57.664;39.686;2022-07-23T11:53:24;8.20;;;6.90;;
63342;SDS011;49465;57.664;39.686;2022-07-23T11:58:35;10.35;;;6.88;;
63342;SDS011;49465;57.664;39.686;2022-07-23T12:01:02;8.23;;;6.88;;
63342;SDS011;49465;57.664;39.686;2022-07-23T12:03:29;7.28;;;6.55;;
63342;SDS011;49465;57.664;39.686;2022-07-23T12:05:56;7.80;;;6.72;;
63342;SDS011;49465;57.664;39.686;2022-07-23T12:08:23;7.80;;;7.00;;
63342;SDS011;49465;57.664;39.686;2022-07-23T12:10:50;7.40;;;6.70;;
63342;SDS011;49465;57.664;39.686;2022-07-23T12:13:17;8.27;;;6.45;;
63342;SDS011;49465;57.664;39.686;2022-07-23T12:15:46;8.15;;;6.55;;
63342;SDS011;49465;57.664;39.686;2022-07-23T12:18:14;7.78;;;7.07;;
63342;SDS011;49465;57.664;39.686;2022-07-23T12:20:44;9.73;;;6.85;;
63342;SDS011;49465;57.664;39.686;2022-07-23T12:23:16;7.47;;;6.78;;
63342;SDS011;49465;57.664;39.686;2022-07-23T12:25:44;7.93;;;7.13;;
63342;SDS011;49465;57.664;39.686;2022-07-23T12:28:27;7.68;;;6.78;;
63342;SDS011;49465;57.664;39.686;2022-07-23T12:31:01;8.70;;;6.78;;
63342;SDS011;49465;57.664;39.686;2022-07-23T12:33:31;8.23;;;7.00;;
63342;SDS011;49465;57.664;39.686;2022-07-23T12:36:06;7.75;;;6.63;;
63342;SDS011;49465;57.664;39.686;2022-07-23T12:38:38;7.13;;;6.43;;
63342;SDS011;49465;57.664;39.686;2022-07-23T12:41:50;8.43;;;6.53;;
63342;SDS011;49465;57.664;39.686;2022-07-23T12:44:17;8.07;;;6.78;;
63342;SDS011;49465;57.664;39.686;2022-07-23T12:46:43;8.05;;;7.25;;
63342;SDS011;49465;57.664;39.686;2022-07-23T12:49:27;6.88;;;6.28;;
63342;SDS011;49465;57.664;39.686;2022-07-23T12:51:54;7.47;;;6.78;;
63342;SDS011;49465;57.664;39.686;2022-07-23T12:54:26;7.50;;;6.68;;
63342;SDS011;49465;57.664;39.686;2022-07-23T12:56:53;7.55;;;6.80;;
63342;SDS011;49465;57.664;39.686;2022-07-23T12:59:20;7.32;;;6.63;;
63342;SDS011;49465;57.664;39.686;2022-07-23T13:01:56;7.13;;;6.43;;
63342;SDS011;49465;57.664;39.686;2022-07-23T13:04:24;8.57;;;6.97;;
63342;SDS011;49465;57.664;39.686;2022-07-23T13:06:57;7.63;;;6.90;;
63342;SDS011;49465;57.664;39.686;2022-07-23T13:09:29;7.13;;;6.43;;
63342;SDS011;49465;57.664;39.686;2022-07-23T13:11:57;8.80;;;6.93;;
63342;SDS011;49465;57.664;39.686;2022-07-23T13:14:24;8.10;;;6.45;;
63342;SDS011;49465;57.664;39.686;2022-07-23T13:16:52;7.38;;;6.68;;
63342;SDS011;49465;57.664;39.686;2022-07-23T13:19:20;7.25;;;6.57;;
63342;SDS011;49465;57.664;39.686;2022-07-23T13:21:47;8.32;;;6.82;;
63342;SDS011;49465;57.664;39.686;2022-07-23T13:24:14;7.38;;;6.68;;
63342;SDS011;49465;57.664;39.686;2022-07-23T13:26:41;7.38;;;6.50;;
63342;SDS011;49465;57.664;39.686;2022-07-23T13:29:08;7.15;;;6.45;;
63342;SDS011;49465;57.664;39.686;2022-07-23T13:31:39;7.35;;;6.63;;
63342;SDS011;49465;57.664;39.686;2022-07-23T13:34:08;7.28;;;6.47;;
63342;SDS011;49465;57.664;39.686;2022-07-23T13:36:35;6.82;;;6.13;;
63342;SDS011;49465;57.664;39.686;2022-07-23T13:39:07;6.90;;;6.15;;
63342;SDS011;49465;57.664;39.686;2022-07-23T13:41:41;7.07;;;6.38;;
63342;SDS011;49465;57.664;39.686;2022-07-23T13:44:07;8.32;;;6.40;;
63342;SDS011;49465;57.664;39.686;2022-07-23T13:46:37;8.65;;;6.07;;
63342;SDS011;49465;57.664;39.686;2022-07-23T13:49:03;6.93;;;6.22;;
63342;SDS011;49465;57.664;39.686;2022-07-23T13:51:32;6.82;;;6.10;;
63342;SDS011;49465;57.664;39.686;2022-07-23T13:54:04;6.57;;;5.85;;
63342;SDS011;49465;57.664;39.686;2022-07-23T13:56:33;6.75;;;6.15;;
63342;SDS011;49465;57.664;39.686;2022-07-23T13:59:01;6.53;;;5.93;;
63342;SDS011;49465;57.664;39.686;2022-07-23T14:01:30;6.75;;;6.05;;
63342;SDS011;49465;57.664;39.686;2022-07-23T14:04:00;6.68;;;5.97;;
63342;SDS011;49465;57.664;39.686;2022-07-23T14:06:26;8.20;;;6.15;;
63342;SDS011;49465;57.664;39.686;2022-07-23T14:08:53;6.22;;;5.57;;
63342;SDS011;49465;57.664;39.686;2022-07-23T14:11:23;8.75;;;6.70;;
63342;SDS011;49465;57.664;39.686;2022-07-23T14:13:55;6.88;;;5.82;;
63342;SDS011;49465;57.664;39.686;2022-07-23T14:16:29;6.38;;;5.78;;
63342;SDS011;49465;57.664;39.686;2022-07-23T14:18:55;6.28;;;5.28;;
63342;SDS011;49465;57.664;39.686;2022-07-23T14:21:22;5.80;;;5.30;;
63342;SDS011;49465;57.664;39.686;2022-07-23T14:23:48;7.72;;;5.15;;
63342;SDS011;49465;57.664;39.686;2022-07-23T14:26:15;5.50;;;5.00;;
63342;SDS011;49465;57.664;39.686;2022-07-23T14:28:45;5.85;;;5.35;;
63342;SDS011;49465;57.664;39.686;2022-07-23T14:31:11;8.50;;;5.60;;
63342;SDS011;49465;57.664;39.686;2022-07-23T14:33:38;5.68;;;5.18;;
63342;SDS011;49465;57.664;39.686;2022-07-23T14:36:09;7.28;;;5.28;;
63342;SDS011;49465;57.664;39.686;2022-07-23T14:38:35;5.90;;;5.18;;
63342;SDS011;49465;57.664;39.686;2022-07-23T14:41:07;5.85;;;5.20;;
63342;SDS011;49465;57.664;39.686;2022-07-23T14:43:34;5.70;;;5.10;;
63342;SDS011;49465;57.664;39.686;2022-07-23T14:46:02;5.43;;;4.93;;
63342;SDS011;49465;57.664;39.686;2022-07-23T14:48:28;6.43;;;5.13;;
63342;SDS011;49465;57.664;39.686;2022-07-23T14:50:55;7.72;;;5.15;;
63342;SDS011;49465;57.664;39.686;2022-07-23T14:53:26;5.53;;;4.95;;
63342;SDS011;49465;57.664;39.686;2022-07-23T14:55:53;5.22;;;4.72;;
63342;SDS011;49465;57.664;39.686;2022-07-23T14:58:26;7.32;;;6.63;;
63342;SDS011;49465;57.664;39.686;2022-07-23T15:00:54;7.65;;;6.95;;
63342;SDS011;49465;57.664;39.686;2022-07-23T15:03:20;8.10;;;7.38;;
63342;SDS011;49465;57.664;39.686;2022-07-23T15:05:50;6.43;;;5.47;;
63342;SDS011;49465;57.664;39.686;2022-07-23T15:08:26;5.80;;;5.25;;
63342;SDS011;49465;57.664;39.686;2022-07-23T15:10:53;6.10;;;5.30;;
63342;SDS011;49465;57.664;39.686;2022-07-23T15:13:26;8.00;;;5.03;;
63342;SDS011;49465;57.664;39.686;2022-07-23T15:15:53;5.35;;;4.85;;
63342;SDS011;49465;57.664;39.686;2022-07-23T15:18:20;5.38;;;4.43;;
63342;SDS011;49465;57.664;39.686;2022-07-23T15:20:49;5.38;;;4.70;;
63342;SDS011;49465;57.664;39.686;2022-07-23T15:23:18;5.45;;;4.78;;
63342;SDS011;49465;57.664;39.686;2022-07-23T15:25:45;5.10;;;4.60;;
63342;SDS011;49465;57.664;39.686;2022-07-23T15:28:19;6.22;;;4.70;;
63342;SDS011;49465;57.664;39.686;2022-07-23T15:30:53;5.60;;;4.75;;
63342;SDS011;49465;57.664;39.686;2022-07-23T15:33:37;5.00;;;4.60;;
63342;SDS011;49465;57.664;39.686;2022-07-23T15:36:10;5.28;;;4.65;;
63342;SDS011;49465;57.664;39.686;2022-07-23T15:38:39;5.15;;;4.65;;
63342;SDS011;49465;57.664;39.686;2022-07-23T15:41:06;5.18;;;4.32;;
63342;SDS011;49465;57.664;39.686;2022-07-23T15:43:36;5.65;;;4.22;;
63342;SDS011;49465;57.664;39.686;2022-07-23T15:46:06;5.97;;;4.72;;